Time,TemperatureF,DewpointF,PressureIn,WindDirection,WindDirectionDegrees,WindSpeedMPH,WindSpeedGustMPH,Humidity,HourlyPrecipIn,Conditions,Clouds,dailyrainin,SolarRadiationWatts/m^2,SoftwareType,DateUTC
2013-03-19 00:00:00,22.5,0.7,30.25,SE,125,12.7,12.7,38,0.00,BKN,FEW,0.02,0.0,WeatherDisplay:10.37,2013-03-19 04:00:00,
2013-03-19 00:02:00,22.6,1.3,30.25,South,188,11.0,11.0,39,0.00,RA,FEW,0.00,0.0,WeatherDisplay:10.37,2013-03-19 04:02:00,
2013-03-19 00:07:00,22.5,2.3,30.25,SE,130,4.0,4.0,41,0.00,RA,FEW,0.00,0.0,WeatherDisplay:10.37,2013-03-19 04:07:00,
2013-03-19 00:10:00,22.4,2.2,30.25,SSE,148,5.0,5.0,41,0.00,RA,FEW,0.00,0.0,WeatherDisplay:10.37,2013-03-19 04:10:00,
2013-03-19 00:15:00,22.2,1.0,30.24,ESE,102,11.5,11.5,39,0.00,OVC,FEW,0.00,0.0,WeatherDisplay:10.37,2013-03-19 04:15:00,
2013-03-19 00:20:00,22.2,1.5,30.25,ESE,122,5.8,5.8,40,0.00,OVC,FEW,0.00,0.0,WeatherDisplay:10.37,2013-03-19 04:20:00,
2013-03-19 00:25:00,22.2,1.5,30.24,ESE,109,11.5,11.5,40,0.00,OVC,FEW,0.00,0.0,WeatherDisplay:10.37,2013-03-19 04:25:00,
2013-03-19 00:30:00,22.3,2.1,30.24,SE,142,9.2,9.2,41,0.00,OVC,FEW,0.00,0.0,WeatherDisplay:10.37,2013-03-19 04:30:00,
2013-03-19 00:35:00,22.3,2.1,30.23,SE,143,12.0,12.0,41,0.00,OVC,FEW,0.00,0.0,WeatherDisplay:10.37,2013-03-19 04:35:00,
2013-03-19 00:40:00,22.3,2.6,30.23,SSE,148,5.0,5.0,42,0.00,OVC,FEW,0.00,0.0,WeatherDisplay:10.37,2013-03-19 04:40:00,
2013-03-19 00:45:00,22.2,2.0,30.22,ESE,105,7.0,7.0,41,0.00,OVC,FEW,0.00,0.0,WeatherDisplay:10.37,2013-03-19 04:45:00,
2013-03-19 00:50:00,22.4,2.2,30.22,SE,145,11.5,11.5,41,0.00,OVC,FEW,0.00,0.0,WeatherDisplay:10.37,2013-03-19 04:50:00,
2013-03-19 00:55:00,22.5,1.8,30.21,SSE,155,18.4,18.4,40,0.00,OVC,FEW,0.00,0.0,WeatherDisplay:10.37,2013-03-19 04:55:00,
2013-03-19 01:00:00,22.5,2.3,30.21,SE,141,5.0,5.0,41,0.00,OVC,FEW,0.00,0.0,WeatherDisplay:10.37,2013-03-19 05:00:00,
2013-03-19 01:05:00,22.5,2.3,30.20,SSE,159,15.0,15.0,41,0.00,OVC,FEW,0.00,0.0,WeatherDisplay:10.37,2013-03-19 05:05:00,
2013-03-19 01:10:00,22.6,2.9,30.20,SE,136,9.2,9.2,42,0.00,OVC,FEW,0.00,0.0,WeatherDisplay:10.37,2013-03-19 05:10:00,
2013-03-19 01:15:00,22.6,2.4,30.20,East,97,7.0,7.0,41,0.00,OVC,FEW,0.00,0.0,WeatherDisplay:10.37,2013-03-19 05:15:00,
2013-03-19 01:20:00,22.6,2.9,30.20,SE,136,10.4,10.4,42,0.00,OVC,FEW,0.00,0.0,WeatherDisplay:10.37,2013-03-19 05:20:00,
2013-03-19 01:25:00,22.6,2.4,30.19,ESE,118,17.3,17.3,41,0.00,OVC,FEW,0.00,0.0,WeatherDisplay:10.37,2013-03-19 05:25:00,
2013-03-19 01:30:00,22.6,2.9,30.19,SE,125,13.0,13.0,42,0.00,OVC,FEW,0.00,0.0,WeatherDisplay:10.37,2013-03-19 05:30:00,
2013-03-19 01:35:00,22.5,2.8,30.18,SE,127,14.0,14.0,42,0.00,OVC,FEW,0.00,0.0,WeatherDisplay:10.37,2013-03-19 05:35:00,
2013-03-19 01:40:00,22.4,3.2,30.18,ESE,111,11.5,11.5,43,0.00,OVC,FEW,0.00,0.0,WeatherDisplay:10.37,2013-03-19 05:40:00,
2013-03-19 01:45:00,22.4,3.2,30.18,SE,134,11.5,11.5,43,0.00,OVC,FEW,0.00,0.0,WeatherDisplay:10.37,2013-03-19 05:45:00,
2013-03-19 01:50:00,22.3,3.2,30.18,SE,140,17.3,17.3,43,0.00,OVC,FEW,0.00,0.0,WeatherDisplay:10.37,2013-03-19 05:50:00,
2013-03-19 01:55:00,22.3,3.7,30.18,ESE,114,15.0,15.0,44,0.00,OVC,FEW,0.00,0.0,WeatherDisplay:10.37,2013-03-19 05:55:00,
2013-03-19 02:00:00,22.3,3.2,30.18,ESE,106,19.6,19.6,43,0.00,OVC,FEW,0.00,0.0,WeatherDisplay:10.37,2013-03-19 06:00:00,
2013-03-19 02:05:00,22.4,2.7,30.18,East,89,20.0,20.0,42,0.00,OVC,FEW,0.00,0.0,WeatherDisplay:10.37,2013-03-19 06:05:00,
2013-03-19 02:10:00,22.3,3.2,30.17,ENE,77,18.4,18.4,43,0.00,OVC,FEW,0.00,0.0,WeatherDisplay:10.37,2013-03-19 06:10:00,
2013-03-19 02:15:00,22.2,3.1,30.17,ESE,106,12.0,12.0,43,0.00,OVC,FEW,0.00,0.0,WeatherDisplay:10.37,2013-03-19 06:15:00,
2013-03-19 02:20:00,22.1,3.5,30.17,SE,130,17.3,17.3,44,0.00,OVC,FEW,0.00,0.0,WeatherDisplay:10.37,2013-03-19 06:20:00,
2013-03-19 02:25:00,22.1,4.0,30.17,ESE,119,11.5,11.5,45,0.00,OVC,FEW,0.00,0.0,WeatherDisplay:10.37,2013-03-19 06:25:00,
2013-03-19 02:30:00,21.9,4.3,30.16,SSE,155,11.5,11.5,46,0.00,OVC,FEW,0.00,0.0,WeatherDisplay:10.37,2013-03-19 06:30:00,
2013-03-19 02:35:00,21.8,3.7,30.16,ESE,121,16.1,16.1,45,0.00,OVC,FEW,0.00,0.0,WeatherDisplay:10.37,2013-03-19 06:35:00,
2013-03-19 02:40:00,21.9,3.8,30.15,SE,136,16.0,16.0,45,0.00,OVC,FEW,0.00,0.0,WeatherDisplay:10.37,2013-03-19 06:40:00,
2013-03-19 02:45:00,22.0,3.9,30.15,SE,124,13.8,13.8,45,0.00,OVC,FEW,0.00,0.0,WeatherDisplay:10.37,2013-03-19 06:45:00,
2013-03-19 02:50:00,22.0,3.9,30.15,East,92,11.5,11.5,45,0.00,OVC,FEW,0.00,0.0,WeatherDisplay:10.37,2013-03-19 06:50:00,
2013-03-19 02:55:00,22.0,4.3,30.15,ESE,111,11.5,11.5,46,0.00,OVC,FEW,0.00,0.0,WeatherDisplay:10.37,2013-03-19 06:55:00,
2013-03-19 03:00:00,21.9,4.3,30.14,SSE,151,16.1,16.1,46,0.00,OVC,FEW,0.00,0.0,WeatherDisplay:10.37,2013-03-19 07:00:00,
2013-03-19 03:05:00,21.8,4.6,30.14,ESE,106,14.0,14.0,47,0.00,OVC,FEW,0.00,0.0,WeatherDisplay:10.37,2013-03-19 07:05:00,
2013-03-19 03:10:00,21.9,4.7,30.14,East,100,14.0,14.0,47,0.00,OVC,FEW,0.00,0.0,WeatherDisplay:10.37,2013-03-19 07:10:00,
2013-03-19 03:15:00,21.9,4.7,30.14,SSE,149,12.7,12.7,47,0.00,OVC,FEW,0.00,0.0,WeatherDisplay:10.37,2013-03-19 07:15:00,
2013-03-19 03:20:00,21.9,4.7,30.14,ESE,114,14.0,14.0,47,0.00,-SN,FEW,0.00,0.0,WeatherDisplay:10.37,2013-03-19 07:20:00,
2013-03-19 03:25:00,22.0,4.8,30.14,SSE,164,12.0,12.0,47,0.00,-SN,FEW,0.00,0.0,WeatherDisplay:10.37,2013-03-19 07:25:00,
2013-03-19 03:30:00,21.9,5.6,30.13,SSE,155,15.0,15.0,49,0.00,-SN,FEW,0.00,0.0,WeatherDisplay:10.37,2013-03-19 07:30:00,
2013-03-19 03:35:00,21.9,5.6,30.13,SE,135,13.0,13.0,49,0.00,-SN,FEW,0.00,0.0,WeatherDisplay:10.37,2013-03-19 07:35:00,
2013-03-19 03:40:00,21.9,5.6,30.12,SSE,148,17.0,17.0,49,0.00,-SN,FEW,0.00,0.0,WeatherDisplay:10.37,2013-03-19 07:40:00,
2013-03-19 03:45:00,22.0,5.3,30.12,East,101,15.0,15.0,48,0.00,-SN,FEW,0.00,0.0,WeatherDisplay:10.37,2013-03-19 07:45:00,
2013-03-19 03:50:00,22.0,6.2,30.12,South,169,11.5,11.5,50,0.00,-SN,FEW,0.00,0.0,WeatherDisplay:10.37,2013-03-19 07:50:00,
2013-03-19 03:55:00,21.9,6.1,30.11,ESE,111,6.0,6.0,50,0.00,-SN,FEW,0.00,0.0,WeatherDisplay:10.37,2013-03-19 07:55:00,
2013-03-19 04:01:00,21.8,6.0,30.11,ESE,122,13.0,13.0,50,0.00,-SN,FEW,0.00,0.0,WeatherDisplay:10.37,2013-03-19 08:01:00,
2013-03-19 04:06:00,21.9,6.5,30.11,SE,128,9.2,9.2,51,0.00,-SN,FEW,0.00,0.0,WeatherDisplay:10.37,2013-03-19 08:06:00,
2013-03-19 04:11:00,21.8,6.8,30.11,ESE,108,18.0,18.0,52,0.00,-SN,FEW,0.00,0.0,WeatherDisplay:10.37,2013-03-19 08:11:00,
2013-03-19 04:16:00,21.8,7.7,30.11,SSE,159,12.0,12.0,54,0.00,-SN,FEW,0.00,0.0,WeatherDisplay:10.37,2013-03-19 08:16:00,
2013-03-19 04:21:00,21.7,8.0,30.10,ESE,106,10.4,10.4,55,0.00,-SN,FEW,0.00,0.0,WeatherDisplay:10.37,2013-03-19 08:21:00,
2013-03-19 04:26:00,21.6,8.7,30.10,SE,126,14.0,14.0,57,0.00,-SN,FEW,0.00,0.0,WeatherDisplay:10.37,2013-03-19 08:26:00,
2013-03-19 04:31:00,21.4,10.4,30.10,ESE,108,14.0,14.0,62,0.00,-SN,FEW,0.00,0.0,WeatherDisplay:10.37,2013-03-19 08:31:00,
2013-03-19 04:36:00,21.0,11.4,30.09,SE,142,18.4,18.4,66,0.00,-SN,FEW,0.00,0.0,WeatherDisplay:10.37,2013-03-19 08:36:00,
2013-03-19 04:41:00,20.6,12.4,30.09,SE,135,13.0,13.0,70,0.00,-SN,FEW,0.00,0.0,WeatherDisplay:10.37,2013-03-19 08:41:00,
2013-03-19 04:47:00,20.2,12.9,30.09,East,91,13.0,13.0,73,0.00,-SN,FEW,0.00,0.0,WeatherDisplay:10.37,2013-03-19 08:47:00,
2013-03-19 04:52:00,19.8,13.8,30.09,SE,124,11.5,11.5,77,0.00,-SN,FEW,0.00,0.0,WeatherDisplay:10.37,2013-03-19 08:52:00,
2013-03-19 04:57:00,19.5,14.0,30.09,East,89,18.4,18.4,79,0.00,-SN,FEW,0.00,0.0,WeatherDisplay:10.37,2013-03-19 08:57:00,
2013-03-19 05:02:00,19.3,14.1,30.09,SE,145,22.0,22.0,80,0.00,-SN,FEW,0.00,0.0,WeatherDisplay:10.37,2013-03-19 09:02:00,
2013-03-19 05:07:00,19.2,14.6,30.08,ESE,118,10.4,10.4,82,0.00,-SN,FEW,0.00,0.0,WeatherDisplay:10.37,2013-03-19 09:07:00,
2013-03-19 05:12:00,19.0,14.7,30.09,ESE,123,11.5,11.5,83,0.00,-SN,FEW,0.00,0.0,WeatherDisplay:10.37,2013-03-19 09:12:00,
2013-03-19 05:17:00,18.9,14.9,30.09,SSE,149,9.2,9.2,84,0.00,-SN,FEW,0.00,0.0,WeatherDisplay:10.37,2013-03-19 09:17:00,
2013-03-19 05:22:00,18.9,14.9,30.08,East,101,7.0,7.0,84,0.00,-SN,FEW,0.00,0.0,WeatherDisplay:10.37,2013-03-19 09:22:00,
2013-03-19 05:27:00,19.0,15.0,30.08,East,92,16.1,16.1,84,0.00,-SN,FEW,0.00,0.0,WeatherDisplay:10.37,2013-03-19 09:27:00,
2013-03-19 05:32:00,19.1,15.3,30.08,East,98,19.0,19.0,85,0.00,-SN,FEW,0.00,0.0,WeatherDisplay:10.37,2013-03-19 09:32:00,
2013-03-19 05:37:00,19.1,15.3,30.07,SSE,157,19.6,19.6,85,0.00,-SN,FEW,0.00,0.0,WeatherDisplay:10.37,2013-03-19 09:37:00,
2013-03-19 05:42:00,19.0,15.5,30.07,ESE,107,14.0,14.0,86,0.00,-SN,FEW,0.00,0.0,WeatherDisplay:10.37,2013-03-19 09:42:00,
2013-03-19 05:47:00,18.9,15.7,30.07,SE,137,12.7,12.7,87,0.00,-SN,FEW,0.00,0.0,WeatherDisplay:10.37,2013-03-19 09:47:00,
2013-03-19 05:52:00,18.8,15.6,30.07,East,94,18.0,18.0,87,0.00,-SN,FEW,0.00,0.0,WeatherDisplay:10.37,2013-03-19 09:52:00,
2013-03-19 05:58:00,18.9,15.7,30.07,SSE,152,16.1,16.1,87,0.00,-SN,FEW,0.00,0.0,WeatherDisplay:10.37,2013-03-19 09:58:00,
2013-03-19 06:03:00,18.8,15.6,30.07,East,90,18.4,18.4,87,0.00,-SN,FEW,0.00,0.0,WeatherDisplay:10.37,2013-03-19 10:03:00,
2013-03-19 06:08:00,18.8,15.6,30.06,SSE,165,16.1,16.1,87,0.00,-SN,FEW,0.00,0.0,WeatherDisplay:10.37,2013-03-19 10:08:00,
2013-03-19 06:13:00,18.7,15.7,30.06,East,101,17.3,17.3,88,0.00,-SN,FEW,0.00,0.0,WeatherDisplay:10.37,2013-03-19 10:13:00,
2013-03-19 06:18:00,18.7,15.7,30.06,SE,134,18.4,18.4,88,0.00,-SN,FEW,0.00,0.0,WeatherDisplay:10.37,2013-03-19 10:18:00,
2013-03-19 06:23:00,18.8,15.8,30.06,SE,128,16.0,16.0,88,0.00,-SN,FEW,0.00,0.0,WeatherDisplay:10.37,2013-03-19 10:23:00,
2013-03-19 06:28:00,18.7,15.5,30.06,ENE,74,16.1,16.1,87,0.00,-SN,FEW,0.00,0.0,WeatherDisplay:10.37,2013-03-19 10:28:00,
2013-03-19 06:33:00,18.7,15.5,30.06,East,94,15.0,15.0,87,0.00,-SN,FEW,0.00,0.0,WeatherDisplay:10.37,2013-03-19 10:33:00,
2013-03-19 06:38:00,18.7,15.5,30.05,ESE,105,18.4,18.4,87,0.00,-SN,FEW,0.00,0.0,WeatherDisplay:10.37,2013-03-19 10:38:00,
2013-03-19 06:43:00,18.7,15.7,30.05,SE,142,24.0,24.0,88,0.00,-SN,FEW,0.00,0.0,WeatherDisplay:10.37,2013-03-19 10:43:00,
2013-03-19 06:48:00,18.7,15.5,30.05,SSE,151,16.1,16.1,87,0.00,-SN,FEW,0.00,0.0,WeatherDisplay:10.37,2013-03-19 10:48:00,
2013-03-19 06:53:00,18.7,15.7,30.05,East,90,17.3,17.3,88,0.00,-SN,FEW,0.00,0.0,WeatherDisplay:10.37,2013-03-19 10:53:00,
2013-03-19 06:58:00,18.7,15.5,30.04,SE,128,19.6,19.6,87,0.00,-SN,FEW,0.00,0.0,WeatherDisplay:10.37,2013-03-19 10:58:00,
2013-03-19 07:03:00,18.7,15.7,30.05,SE,139,13.0,13.0,88,0.00,-SN,FEW,0.00,0.0,WeatherDisplay:10.37,2013-03-19 11:03:00,
2013-03-19 07:08:00,18.6,15.9,30.05,SSE,168,17.3,17.3,89,0.00,-SN,FEW,0.00,5.0,WeatherDisplay:10.37,2013-03-19 11:08:00,
2013-03-19 07:13:00,18.5,15.8,30.05,SE,135,18.4,18.4,89,0.00,-SN,FEW,0.00,7.0,WeatherDisplay:10.37,2013-03-19 11:13:00,
2013-03-19 07:18:00,18.4,16.0,30.04,SE,138,17.3,17.3,90,0.00,-SN,FEW,0.00,7.0,WeatherDisplay:10.37,2013-03-19 11:18:00,
2013-03-19 07:23:00,18.4,16.0,30.04,ESE,109,25.3,25.3,90,0.00,-SN,FEW,0.00,7.0,WeatherDisplay:10.37,2013-03-19 11:23:00,
2013-03-19 07:28:00,18.3,15.9,30.03,ESE,105,16.1,16.1,90,0.00,-SN,FEW,0.00,11.0,WeatherDisplay:10.37,2013-03-19 11:28:00,
2013-03-19 07:33:00,18.3,15.9,30.03,SSE,157,17.0,17.0,90,0.00,-SN,FEW,0.00,12.0,WeatherDisplay:10.37,2013-03-19 11:33:00,
2013-03-19 07:38:00,18.2,15.8,30.03,ESE,111,19.6,19.6,90,0.00,-SN,FEW,0.00,16.0,WeatherDisplay:10.37,2013-03-19 11:38:00,
2013-03-19 07:43:00,18.2,15.8,30.03,SE,134,13.8,13.8,90,0.00,-SN,FEW,0.00,26.0,WeatherDisplay:10.37,2013-03-19 11:43:00,
2013-03-19 07:48:00,18.2,16.0,30.02,East,93,27.0,27.0,91,0.00,-SN,FEW,0.00,26.0,WeatherDisplay:10.37,2013-03-19 11:48:00,
2013-03-19 07:54:00,18.3,15.6,30.03,ESE,109,26.5,26.5,89,0.00,-SN,FEW,0.00,26.0,WeatherDisplay:10.37,2013-03-19 11:54:00,
2013-03-19 07:59:00,18.3,15.6,30.03,ESE,113,22.0,22.0,89,0.00,-SN,FEW,0.00,33.0,WeatherDisplay:10.37,2013-03-19 11:59:00,
2013-03-19 08:04:00,18.4,15.7,30.02,ESE,103,21.9,21.9,89,0.00,OVC,FEW,0.00,26.0,WeatherDisplay:10.37,2013-03-19 12:04:00,
2013-03-19 08:09:00,18.4,15.7,30.01,ESE,109,20.7,20.7,89,0.00,OVC,FEW,0.00,26.0,WeatherDisplay:10.37,2013-03-19 12:09:00,
2013-03-19 08:14:00,18.5,15.8,30.01,South,172,31.1,31.1,89,0.00,OVC,FEW,0.00,40.0,WeatherDisplay:10.37,2013-03-19 12:14:00,
2013-03-19 08:19:00,18.5,15.8,30.01,South,184,23.0,23.0,89,0.00,OVC,FEW,0.00,53.0,WeatherDisplay:10.37,2013-03-19 12:19:00,
2013-03-19 08:24:00,18.5,15.8,30.01,ESE,121,24.2,24.2,89,0.00,OVC,FEW,0.00,60.0,WeatherDisplay:10.37,2013-03-19 12:24:00,
2013-03-19 08:29:00,18.5,16.1,30.00,ESE,108,15.0,15.0,90,0.00,OVC,FEW,0.00,67.0,WeatherDisplay:10.37,2013-03-19 12:29:00,
2013-03-19 08:34:00,18.5,16.1,30.00,South,169,24.0,24.0,90,0.00,OVC,FEW,0.00,70.0,WeatherDisplay:10.37,2013-03-19 12:34:00,
2013-03-19 08:39:00,18.5,16.1,29.99,SSE,151,17.0,17.0,90,0.00,OVC,FEW,0.00,88.0,WeatherDisplay:10.37,2013-03-19 12:39:00,
2013-03-19 08:44:00,18.7,16.0,29.99,SSE,159,24.0,24.0,89,0.00,OVC,FEW,0.00,76.0,WeatherDisplay:10.37,2013-03-19 12:44:00,
2013-03-19 08:49:00,18.7,15.7,29.99,SE,140,25.3,25.3,88,0.00,OVC,FEW,0.00,69.0,WeatherDisplay:10.37,2013-03-19 12:49:00,
2013-03-19 08:54:00,18.7,15.7,30.00,ESE,105,18.4,18.4,88,0.00,OVC,FEW,0.00,72.0,WeatherDisplay:10.37,2013-03-19 12:54:00,
2013-03-19 08:59:00,18.7,15.5,29.99,South,182,20.0,20.0,87,0.00,OVC,FEW,0.00,77.0,WeatherDisplay:10.37,2013-03-19 12:59:00,
2013-03-19 09:04:00,18.7,15.5,29.99,East,84,29.0,29.0,87,0.00,OVC,FEW,0.00,70.0,WeatherDisplay:10.37,2013-03-19 13:04:00,
2013-03-19 09:09:00,18.7,15.5,29.98,ESE,123,25.3,25.3,87,0.00,OVC,FEW,0.00,60.0,WeatherDisplay:10.37,2013-03-19 13:09:00,
2013-03-19 09:14:00,18.8,15.6,29.99,ESE,103,21.0,21.0,87,0.00,OVC,FEW,0.00,53.0,WeatherDisplay:10.37,2013-03-19 13:14:00,
2013-03-19 09:19:00,18.8,15.6,29.99,SSE,147,26.5,26.5,87,0.00,OVC,FEW,0.00,63.0,WeatherDisplay:10.37,2013-03-19 13:19:00,
2013-03-19 09:24:00,18.7,15.5,29.99,SSE,152,27.0,27.0,87,0.00,OVC,FEW,0.00,79.0,WeatherDisplay:10.37,2013-03-19 13:24:00,
2013-03-19 09:29:00,18.7,15.7,29.98,SE,142,17.3,17.3,88,0.00,OVC,FEW,0.00,81.0,WeatherDisplay:10.37,2013-03-19 13:29:00,
2013-03-19 09:34:00,18.7,15.7,29.99,SSE,155,24.2,24.2,88,0.00,OVC,FEW,0.00,63.0,WeatherDisplay:10.37,2013-03-19 13:34:00,
2013-03-19 09:39:00,18.5,15.8,29.98,ESE,115,21.0,21.0,89,0.00,OVC,FEW,0.00,69.0,WeatherDisplay:10.37,2013-03-19 13:39:00,
2013-03-19 09:44:00,18.4,16.0,29.97,SE,132,25.0,25.0,90,0.00,OVC,FEW,0.00,77.0,WeatherDisplay:10.37,2013-03-19 13:44:00,
2013-03-19 09:49:00,18.4,16.2,29.97,South,186,27.6,27.6,91,0.00,OVC,FEW,0.00,76.0,WeatherDisplay:10.37,2013-03-19 13:49:00,
2013-03-19 09:54:00,18.5,16.1,29.97,SE,136,24.2,24.2,90,0.00,OVC,FEW,0.00,93.0,WeatherDisplay:10.37,2013-03-19 13:54:00,
2013-03-19 09:59:00,18.6,16.2,29.98,SSE,155,25.0,25.0,90,0.00,OVC,FEW,0.00,118.0,WeatherDisplay:10.37,2013-03-19 13:59:00,
2013-03-19 10:04:00,18.7,16.3,29.97,East,98,27.0,27.0,90,0.00,OVC,FEW,0.00,120.0,WeatherDisplay:10.37,2013-03-19 14:04:00,
2013-03-19 10:09:00,18.7,16.0,29.97,ESE,117,25.0,25.0,89,0.00,OVC,FEW,0.00,146.0,WeatherDisplay:10.37,2013-03-19 14:09:00,
2013-03-19 10:14:00,18.7,16.0,29.97,SE,125,19.0,19.0,89,0.00,OVC,FEW,0.00,156.0,WeatherDisplay:10.37,2013-03-19 14:14:00,
2013-03-19 10:19:00,18.7,16.0,29.96,East,96,20.0,20.0,89,0.00,OVC,FEW,0.00,199.0,WeatherDisplay:10.37,2013-03-19 14:19:00,
2013-03-19 10:24:00,18.7,15.7,29.96,ESE,116,22.0,22.0,88,0.00,OVC,FEW,0.00,195.0,WeatherDisplay:10.37,2013-03-19 14:24:00,
2013-03-19 10:29:00,18.8,15.8,29.96,SE,126,21.0,21.0,88,0.00,OVC,FEW,0.00,190.0,WeatherDisplay:10.37,2013-03-19 14:29:00,
2013-03-19 10:34:00,18.8,15.8,29.95,East,98,27.0,27.0,88,0.00,OVC,FEW,0.00,199.0,WeatherDisplay:10.37,2013-03-19 14:34:00,
2013-03-19 10:39:00,18.9,15.7,29.95,ESE,118,22.0,22.0,87,0.00,OVC,FEW,0.00,202.0,WeatherDisplay:10.37,2013-03-19 14:39:00,
2013-03-19 10:44:00,19.0,15.5,29.95,SSE,150,21.9,21.9,86,0.00,OVC,FEW,0.00,211.0,WeatherDisplay:10.37,2013-03-19 14:44:00,
2013-03-19 10:49:00,19.0,15.2,29.94,SE,134,23.0,23.0,85,0.00,OVC,FEW,0.00,204.0,WeatherDisplay:10.37,2013-03-19 14:49:00,
2013-03-19 10:54:00,19.0,15.0,29.94,SE,141,20.7,20.7,84,0.00,OVC,FEW,0.00,192.0,WeatherDisplay:10.37,2013-03-19 14:54:00,
2013-03-19 10:59:00,19.1,15.1,29.94,ESE,111,25.3,25.3,84,0.00,OVC,FEW,0.00,174.0,WeatherDisplay:10.37,2013-03-19 14:59:00,
2013-03-19 11:04:00,19.1,15.1,29.94,SE,134,21.0,21.0,84,0.00,OVC,FEW,0.00,158.0,WeatherDisplay:10.37,2013-03-19 15:04:00,
2013-03-19 11:09:00,19.0,15.2,29.94,SSE,167,19.6,19.6,85,0.00,OVC,FEW,0.00,162.0,WeatherDisplay:10.37,2013-03-19 15:09:00,
2013-03-19 11:14:00,18.9,15.4,29.94,SE,139,15.0,15.0,86,0.00,OVC,FEW,0.00,162.0,WeatherDisplay:10.37,2013-03-19 15:14:00,
2013-03-19 11:19:00,18.8,15.0,29.94,ESE,123,26.5,26.5,85,0.00,OVC,FEW,0.00,163.0,WeatherDisplay:10.37,2013-03-19 15:19:00,
2013-03-19 11:24:00,18.9,15.4,29.94,ESE,113,22.0,22.0,86,0.00,OVC,FEW,0.00,153.0,WeatherDisplay:10.37,2013-03-19 15:24:00,
2013-03-19 11:29:00,18.9,15.4,29.95,ESE,119,22.0,22.0,86,0.00,OVC,FEW,0.00,148.0,WeatherDisplay:10.37,2013-03-19 15:29:00,
2013-03-19 11:34:00,18.7,15.2,29.94,ESE,114,19.6,19.6,86,0.00,OVC,FEW,0.00,130.0,WeatherDisplay:10.37,2013-03-19 15:34:00,
2013-03-19 11:39:00,18.7,15.2,29.94,SE,130,34.5,34.5,86,0.00,OVC,FEW,0.00,128.0,WeatherDisplay:10.37,2013-03-19 15:39:00,
2013-03-19 11:44:00,18.7,15.2,29.94,SSE,150,21.0,21.0,86,0.00,OVC,FEW,0.00,127.0,WeatherDisplay:10.37,2013-03-19 15:44:00,
2013-03-19 11:49:00,18.7,15.2,29.94,SE,145,23.0,23.0,86,0.00,OVC,FEW,0.00,109.0,WeatherDisplay:10.37,2013-03-19 15:49:00,
2013-03-19 11:54:00,18.6,15.4,29.95,SSE,153,18.4,18.4,87,0.00,OVC,FEW,0.00,90.0,WeatherDisplay:10.37,2013-03-19 15:54:00,
2013-03-19 11:59:00,18.5,15.3,29.94,SSE,154,18.0,18.0,87,0.00,OVC,FEW,0.00,81.0,WeatherDisplay:10.37,2013-03-19 15:59:00,
2013-03-19 12:04:00,18.4,15.4,29.94,SE,144,14.0,14.0,88,0.00,-SN,FEW,0.00,72.0,WeatherDisplay:10.37,2013-03-19 16:04:00,
2013-03-19 12:09:00,18.3,15.3,29.94,SE,137,21.0,21.0,88,0.00,-SN,FEW,0.00,67.0,WeatherDisplay:10.37,2013-03-19 16:09:00,
2013-03-19 12:14:00,18.3,15.3,29.94,SSE,161,11.0,11.0,88,0.00,-SN,FEW,0.00,62.0,WeatherDisplay:10.37,2013-03-19 16:14:00,
2013-03-19 12:19:00,18.3,15.3,29.94,SE,136,17.3,17.3,88,0.00,-SN,FEW,0.00,63.0,WeatherDisplay:10.37,2013-03-19 16:19:00,
2013-03-19 12:24:00,18.3,15.3,29.93,SE,132,15.0,15.0,88,0.00,-SN,FEW,0.00,69.0,WeatherDisplay:10.37,2013-03-19 16:24:00,
2013-03-19 12:29:00,18.3,15.3,29.93,SE,134,28.0,28.0,88,0.00,-SN,FEW,0.00,63.0,WeatherDisplay:10.37,2013-03-19 16:29:00,
2013-03-19 12:34:00,18.3,15.1,29.93,SSE,168,16.1,16.1,87,0.00,-SN,FEW,0.00,60.0,WeatherDisplay:10.37,2013-03-19 16:34:00,
2013-03-19 12:39:00,18.3,15.1,29.93,ESE,103,23.0,23.0,87,0.00,-SN,FEW,0.00,60.0,WeatherDisplay:10.37,2013-03-19 16:39:00,
2013-03-19 12:44:00,18.3,15.3,29.94,SE,132,14.0,14.0,88,0.00,-SN,FEW,0.00,60.0,WeatherDisplay:10.37,2013-03-19 16:44:00,
2013-03-19 12:49:00,18.3,15.1,29.93,ESE,113,21.0,21.0,87,0.00,-SN,FEW,0.00,67.0,WeatherDisplay:10.37,2013-03-19 16:49:00,
2013-03-19 12:54:00,18.3,15.3,29.93,East,88,21.0,21.0,88,0.00,-SN,FEW,0.00,62.0,WeatherDisplay:10.37,2013-03-19 16:54:00,
2013-03-19 12:59:00,18.1,15.1,29.93,SE,136,19.0,19.0,88,0.00,-SN,FEW,0.00,49.0,WeatherDisplay:10.37,2013-03-19 16:59:00,
2013-03-19 13:04:00,17.9,15.5,29.93,SSE,147,12.7,12.7,90,0.00,-SN,FEW,0.00,46.0,WeatherDisplay:10.37,2013-03-19 17:04:00,
2013-03-19 13:09:00,17.8,15.6,29.93,SSE,149,13.0,13.0,91,0.00,-SN,FEW,0.00,83.0,WeatherDisplay:10.37,2013-03-19 17:09:00,
2013-03-19 13:14:00,17.7,15.3,29.93,ESE,115,13.8,13.8,90,0.00,-SN,FEW,0.00,91.0,WeatherDisplay:10.37,2013-03-19 17:14:00,
2013-03-19 13:19:00,17.8,15.4,29.91,South,172,19.0,19.0,90,0.00,-SN,FEW,0.00,90.0,WeatherDisplay:10.37,2013-03-19 17:19:00,
2013-03-19 13:24:00,17.8,15.1,29.91,SSE,148,16.1,16.1,89,0.00,-SN,FEW,0.00,107.0,WeatherDisplay:10.37,2013-03-19 17:24:00,
2013-03-19 13:29:00,17.9,14.9,29.91,South,181,16.1,16.1,88,0.00,-SN,FEW,0.00,113.0,WeatherDisplay:10.37,2013-03-19 17:29:00,
2013-03-19 13:34:00,17.9,14.9,29.91,SE,146,20.0,20.0,88,0.00,-SN,FEW,0.00,128.0,WeatherDisplay:10.37,2013-03-19 17:34:00,
2013-03-19 13:39:00,18.0,15.3,29.91,SE,142,13.0,13.0,89,0.00,-SN,FEW,0.00,98.0,WeatherDisplay:10.37,2013-03-19 17:39:00,
2013-03-19 13:44:00,17.9,15.2,29.91,SSE,148,17.3,17.3,89,0.00,-SN,FEW,0.00,91.0,WeatherDisplay:10.37,2013-03-19 17:44:00,
2013-03-19 13:49:00,17.7,15.0,29.91,ESE,111,20.7,20.7,89,0.00,-SN,FEW,0.00,91.0,WeatherDisplay:10.37,2013-03-19 17:49:00,
2013-03-19 13:54:00,17.7,15.3,29.91,East,101,15.0,15.0,90,0.00,-SN,FEW,0.00,100.0,WeatherDisplay:10.37,2013-03-19 17:54:00,
2013-03-19 13:59:00,17.7,15.0,29.91,ESE,117,21.0,21.0,89,0.00,-SN,FEW,0.00,88.0,WeatherDisplay:10.37,2013-03-19 17:59:00,
2013-03-19 14:04:00,17.7,15.0,29.90,SE,140,19.6,19.6,89,0.00,-SN,FEW,0.00,113.0,WeatherDisplay:10.37,2013-03-19 18:04:00,
2013-03-19 14:09:00,17.8,15.4,29.90,ESE,105,18.4,18.4,90,0.00,-SN,FEW,0.00,118.0,WeatherDisplay:10.37,2013-03-19 18:09:00,
2013-03-19 14:14:00,17.8,15.1,29.90,SE,145,10.4,10.4,89,0.00,-SN,FEW,0.00,95.0,WeatherDisplay:10.37,2013-03-19 18:14:00,
2013-03-19 14:19:00,17.7,15.0,29.90,SSE,150,19.0,19.0,89,0.00,-SN,FEW,0.00,105.0,WeatherDisplay:10.37,2013-03-19 18:19:00,
2013-03-19 14:24:00,17.6,15.2,29.89,ESE,107,17.3,17.3,90,0.00,-SN,FEW,0.00,114.0,WeatherDisplay:10.37,2013-03-19 18:24:00,
2013-03-19 14:29:00,17.5,15.1,29.89,ESE,122,17.3,17.3,90,0.00,-SN,FEW,0.00,58.0,WeatherDisplay:10.37,2013-03-19 18:29:00,
2013-03-19 14:34:00,17.4,15.2,29.89,East,84,19.0,19.0,91,0.00,-SN,FEW,0.00,67.0,WeatherDisplay:10.37,2013-03-19 18:34:00,
2013-03-19 14:39:00,17.3,15.1,29.89,SE,126,14.0,14.0,91,0.00,-SN,FEW,0.00,81.0,WeatherDisplay:10.37,2013-03-19 18:39:00,
2013-03-19 14:45:00,17.3,15.4,29.89,South,173,15.0,15.0,92,0.00,-SN,FEW,0.00,104.0,WeatherDisplay:10.37,2013-03-19 18:45:00,
2013-03-19 14:50:00,17.4,15.5,29.88,SSE,161,15.0,15.0,92,0.00,BKN,FEW,0.00,163.0,WeatherDisplay:10.37,2013-03-19 18:50:00,
2013-03-19 14:55:00,17.4,15.5,29.88,ENE,70,15.0,15.0,92,0.00,BKN,FEW,0.00,125.0,WeatherDisplay:10.37,2013-03-19 18:55:00,
2013-03-19 15:00:00,17.4,15.2,29.88,SE,131,16.1,16.1,91,0.00,BKN,FEW,0.00,100.0,WeatherDisplay:10.37,2013-03-19 19:00:00,
2013-03-19 15:05:00,17.3,15.4,29.87,ESE,116,13.8,13.8,92,0.00,BKN,FEW,0.00,118.0,WeatherDisplay:10.37,2013-03-19 19:05:00,
2013-03-19 15:10:00,17.4,15.5,29.87,SE,136,14.0,14.0,92,0.00,BKN,FEW,0.00,121.0,WeatherDisplay:10.37,2013-03-19 19:10:00,
2013-03-19 15:15:00,17.5,15.6,29.87,East,97,19.0,19.0,92,0.00,BKN,FEW,0.00,132.0,WeatherDisplay:10.37,2013-03-19 19:15:00,
2013-03-19 15:20:00,17.5,15.6,29.86,SE,130,20.0,20.0,92,0.00,BKN,FEW,0.00,123.0,WeatherDisplay:10.37,2013-03-19 19:20:00,
2013-03-19 15:25:00,17.4,15.5,29.85,SE,124,16.1,16.1,92,0.00,BKN,FEW,0.00,120.0,WeatherDisplay:10.37,2013-03-19 19:25:00,
2013-03-19 15:30:00,17.4,15.5,29.85,ESE,108,16.1,16.1,92,0.00,BKN,FEW,0.00,93.0,WeatherDisplay:10.37,2013-03-19 19:30:00,
2013-03-19 15:35:00,17.4,15.5,29.85,SE,136,18.0,18.0,92,0.00,BKN,FEW,0.00,69.0,WeatherDisplay:10.37,2013-03-19 19:35:00,
2013-03-19 15:40:00,17.3,15.1,29.84,East,101,16.1,16.1,91,0.00,BKN,FEW,0.00,63.0,WeatherDisplay:10.37,2013-03-19 19:40:00,
2013-03-19 15:45:00,17.2,15.3,29.84,SE,145,17.3,17.3,92,0.00,BKN,FEW,0.00,70.0,WeatherDisplay:10.37,2013-03-19 19:45:00,
2013-03-19 15:50:00,17.2,15.3,29.84,East,101,24.2,24.2,92,0.00,BKN,FEW,0.00,63.0,WeatherDisplay:10.37,2013-03-19 19:50:00,
2013-03-19 15:55:00,17.2,15.3,29.84,ESE,119,17.0,17.0,92,0.00,BKN,FEW,0.00,63.0,WeatherDisplay:10.37,2013-03-19 19:55:00,
2013-03-19 16:00:00,17.2,15.3,29.84,ESE,105,17.3,17.3,92,0.00,BKN,FEW,0.00,60.0,WeatherDisplay:10.37,2013-03-19 20:00:00,
2013-03-19 16:05:00,17.1,15.2,29.84,ESE,111,20.0,20.0,92,0.00, +SN,FEW,0.00,49.0,WeatherDisplay:10.37,2013-03-19 20:05:00,
2013-03-19 16:10:00,17.1,15.2,29.84,ESE,121,15.0,15.0,92,0.00, +SN,FEW,0.00,44.0,WeatherDisplay:10.37,2013-03-19 20:10:00,
2013-03-19 16:15:00,17.2,15.3,29.84,ESE,110,19.0,19.0,92,0.00, +SN,FEW,0.00,40.0,WeatherDisplay:10.37,2013-03-19 20:15:00,
2013-03-19 16:20:00,17.3,15.4,29.83,ESE,122,20.0,20.0,92,0.00, +SN,FEW,0.00,39.0,WeatherDisplay:10.37,2013-03-19 20:20:00,
2013-03-19 16:25:00,17.4,15.5,29.83,ESE,113,16.0,16.0,92,0.00, +SN,FEW,0.00,35.0,WeatherDisplay:10.37,2013-03-19 20:25:00,
2013-03-19 16:30:00,17.5,15.8,29.83,ESE,115,14.0,14.0,93,0.00, +SN,FEW,0.00,37.0,WeatherDisplay:10.37,2013-03-19 20:30:00,
2013-03-19 16:35:00,17.4,15.5,29.82,ESE,115,13.8,13.8,92,0.00,-SN,FEW,0.00,33.0,WeatherDisplay:10.37,2013-03-19 20:35:00,
2013-03-19 16:40:00,17.3,15.4,29.82,East,90,16.0,16.0,92,0.00,-SN,FEW,0.00,32.0,WeatherDisplay:10.37,2013-03-19 20:40:00,
2013-03-19 16:45:00,17.3,15.4,29.82,East,84,11.5,11.5,92,0.00,-SN,FEW,0.00,30.0,WeatherDisplay:10.37,2013-03-19 20:45:00,
2013-03-19 16:50:00,17.2,15.3,29.81,East,97,16.1,16.1,92,0.00,-SN,FEW,0.00,32.0,WeatherDisplay:10.37,2013-03-19 20:50:00,
2013-03-19 16:55:00,17.2,15.3,29.81,East,94,19.0,19.0,92,0.00,-SN,FEW,0.00,30.0,WeatherDisplay:10.37,2013-03-19 20:55:00,
2013-03-19 17:00:00,17.2,15.5,29.81,SE,134,13.0,13.0,93,0.00,-SN,FEW,0.00,30.0,WeatherDisplay:10.37,2013-03-19 21:00:00,
2013-03-19 17:06:00,17.2,15.5,29.80,ESE,103,13.0,13.0,93,0.00,-SN,FEW,0.00,28.0,WeatherDisplay:10.37,2013-03-19 21:06:00,
2013-03-19 17:11:00,17.2,15.5,29.80,ESE,109,18.4,18.4,93,0.00,-SN,FEW,0.00,26.0,WeatherDisplay:10.37,2013-03-19 21:11:00,
2013-03-19 17:16:00,17.3,15.6,29.81,East,101,14.0,14.0,93,0.00,-SN,FEW,0.00,25.0,WeatherDisplay:10.37,2013-03-19 21:16:00,
2013-03-19 17:21:00,17.2,15.5,29.81,SE,130,12.0,12.0,93,0.00,-SN,FEW,0.00,23.0,WeatherDisplay:10.37,2013-03-19 21:21:00,
2013-03-19 17:27:00,17.3,15.4,29.81,East,94,11.5,11.5,92,0.00,-SN,FEW,0.00,23.0,WeatherDisplay:10.37,2013-03-19 21:27:00,
2013-03-19 17:32:00,17.3,15.6,29.81,ESE,103,9.2,9.2,93,0.00,-SN,FEW,0.00,23.0,WeatherDisplay:10.37,2013-03-19 21:32:00,
2013-03-19 17:37:00,17.3,15.6,29.81,East,87,21.0,21.0,93,0.00,-SN,FEW,0.00,19.0,WeatherDisplay:10.37,2013-03-19 21:37:00,
2013-03-19 17:42:00,17.4,15.7,29.81,ESE,105,10.4,10.4,93,0.00,-SN,FEW,0.00,18.0,WeatherDisplay:10.37,2013-03-19 21:42:00,
2013-03-19 17:47:00,17.3,15.6,29.80,ESE,114,15.0,15.0,93,0.00,-SN,FEW,0.00,18.0,WeatherDisplay:10.37,2013-03-19 21:47:00,
2013-03-19 17:52:00,17.4,15.5,29.80,ESE,110,13.0,13.0,92,0.00,-SN,FEW,0.00,16.0,WeatherDisplay:10.37,2013-03-19 21:52:00,
2013-03-19 17:57:00,17.6,15.7,29.80,ESE,104,11.0,11.0,92,0.00,-SN,FEW,0.00,14.0,WeatherDisplay:10.37,2013-03-19 21:57:00,
2013-03-19 18:03:00,17.5,15.8,29.80,East,94,17.0,17.0,93,0.00,-SN,FEW,0.00,12.0,WeatherDisplay:10.37,2013-03-19 22:03:00,
2013-03-19 18:08:00,17.5,15.6,29.80,SSE,157,12.7,12.7,92,0.00,-SN,FEW,0.00,12.0,WeatherDisplay:10.37,2013-03-19 22:08:00,
2013-03-19 18:13:00,17.5,15.6,29.79,East,100,12.0,12.0,92,0.00,-SN,FEW,0.00,11.0,WeatherDisplay:10.37,2013-03-19 22:13:00,
2013-03-19 18:18:00,17.5,15.8,29.79,ESE,107,11.5,11.5,93,0.00,-SN,FEW,0.00,9.0,WeatherDisplay:10.37,2013-03-19 22:18:00,
2013-03-19 18:23:00,17.5,15.8,29.79,SE,128,7.0,7.0,93,0.00,-SN,FEW,0.00,7.0,WeatherDisplay:10.37,2013-03-19 22:23:00,
2013-03-19 18:28:00,17.5,15.8,29.79,SE,126,10.0,10.0,93,0.00,-SN,FEW,0.00,5.0,WeatherDisplay:10.37,2013-03-19 22:28:00,
2013-03-19 18:33:00,17.5,15.6,29.79,SE,140,12.0,12.0,92,0.00,-SN,FEW,0.00,0.0,WeatherDisplay:10.37,2013-03-19 22:33:00,
2013-03-19 18:38:00,17.4,15.5,29.79,SSE,150,14.0,14.0,92,0.00,-SN,FEW,0.00,0.0,WeatherDisplay:10.37,2013-03-19 22:38:00,
2013-03-19 18:43:00,17.4,15.5,29.79,SE,144,11.5,11.5,92,0.00,-SN,FEW,0.00,0.0,WeatherDisplay:10.37,2013-03-19 22:43:00,
2013-03-19 18:48:00,17.4,15.7,29.78,SE,130,5.0,5.0,93,0.00,-SN,FEW,0.00,0.0,WeatherDisplay:10.37,2013-03-19 22:48:00,
2013-03-19 18:53:00,17.3,15.6,29.79,ESE,113,8.1,8.1,93,0.00,-SN,FEW,0.00,0.0,WeatherDisplay:10.37,2013-03-19 22:53:00,
2013-03-19 18:58:00,17.4,15.7,29.79,South,185,14.0,14.0,93,0.00,-SN,FEW,0.00,0.0,WeatherDisplay:10.37,2013-03-19 22:58:00,
2013-03-19 19:03:00,17.4,15.5,29.80,SE,139,11.0,11.0,92,0.00,-SN,FEW,0.00,0.0,WeatherDisplay:10.37,2013-03-19 23:03:00,
2013-03-19 19:08:00,17.3,15.4,29.80,ESE,109,23.0,23.0,92,0.00,-SN,FEW,0.00,0.0,WeatherDisplay:10.37,2013-03-19 23:08:00,
2013-03-19 19:13:00,17.4,15.5,29.80,SE,146,13.0,13.0,92,0.00,-SN,FEW,0.00,0.0,WeatherDisplay:10.37,2013-03-19 23:13:00,
2013-03-19 19:18:00,17.2,15.3,29.79,East,101,11.5,11.5,92,0.00,-SN,FEW,0.00,0.0,WeatherDisplay:10.37,2013-03-19 23:18:00,
2013-03-19 19:23:00,17.2,15.3,29.79,SE,130,6.0,6.0,92,0.00,-SN,FEW,0.00,0.0,WeatherDisplay:10.37,2013-03-19 23:23:00,
2013-03-19 19:28:00,17.1,15.2,29.80,SSE,154,12.0,12.0,92,0.00,-SN,FEW,0.00,0.0,WeatherDisplay:10.37,2013-03-19 23:28:00,
2013-03-19 19:33:00,17.0,15.1,29.79,East,86,9.2,9.2,92,0.00,-SN,FEW,0.00,0.0,WeatherDisplay:10.37,2013-03-19 23:33:00,
2013-03-19 19:38:00,17.0,15.1,29.79,SSE,157,10.4,10.4,92,0.00,-SN,FEW,0.00,0.0,WeatherDisplay:10.37,2013-03-19 23:38:00,
2013-03-19 19:43:00,16.9,15.0,29.79,SSE,147,5.8,5.8,92,0.00,-SN,FEW,0.00,0.0,WeatherDisplay:10.37,2013-03-19 23:43:00,
2013-03-19 19:48:00,16.8,14.9,29.79,ESE,122,8.1,8.1,92,0.00,-SN,FEW,0.00,0.0,WeatherDisplay:10.37,2013-03-19 23:48:00,
2013-03-19 19:53:00,16.7,14.8,29.79,SE,140,8.0,8.0,92,0.00,-SN,FEW,0.00,0.0,WeatherDisplay:10.37,2013-03-19 23:53:00,
2013-03-19 19:58:00,16.6,14.7,29.79,East,94,8.1,8.1,92,0.00,-SN,FEW,0.00,0.0,WeatherDisplay:10.37,2013-03-19 23:58:00,
2013-03-19 20:03:00,16.6,14.7,29.79,East,98,4.0,4.0,92,0.00,-SN,FEW,0.00,0.0,WeatherDisplay:10.37,2013-03-20 00:03:00,
2013-03-19 20:08:00,16.6,14.7,29.79,ESE,111,5.0,5.0,92,0.00,-SN,FEW,0.00,0.0,WeatherDisplay:10.37,2013-03-20 00:08:00,
2013-03-19 20:13:00,16.6,14.7,29.79,ESE,115,3.5,3.5,92,0.00,-SN,FEW,0.00,0.0,WeatherDisplay:10.37,2013-03-20 00:13:00,
2013-03-19 20:18:00,16.5,14.6,29.80,ESE,119,3.5,3.5,92,0.00,-SN,FEW,0.00,0.0,WeatherDisplay:10.37,2013-03-20 00:18:00,
2013-03-19 20:23:00,16.5,14.8,29.79,ESE,122,2.3,2.3,93,0.00,-SN,FEW,0.00,0.0,WeatherDisplay:10.37,2013-03-20 00:23:00,
2013-03-19 20:28:00,16.5,14.8,29.80,ESE,122,2.3,2.3,93,0.00,-SN,FEW,0.00,0.0,WeatherDisplay:10.37,2013-03-20 00:28:00,
2013-03-19 20:33:00,16.5,14.8,29.80,ESE,123,1.2,0.0,93,0.00,-SN,FEW,0.00,0.0,WeatherDisplay:10.37,2013-03-20 00:33:00,
2013-03-19 20:38:00,16.5,14.8,29.80,ESE,123,1.2,1.2,93,0.00,-SN,FEW,0.00,0.0,WeatherDisplay:10.37,2013-03-20 00:38:00,
2013-03-19 20:43:00,16.5,14.8,29.80,SE,125,2.3,2.3,93,0.00,-SN,FEW,0.00,0.0,WeatherDisplay:10.37,2013-03-20 00:43:00,
2013-03-19 20:48:00,16.5,14.8,29.80,SE,125,1.2,1.2,93,0.00,-SN,FEW,0.00,0.0,WeatherDisplay:10.37,2013-03-20 00:48:00,
2013-03-19 20:53:00,16.4,14.7,29.80,SE,125,1.2,0.0,93,0.00,-SN,FEW,0.00,0.0,WeatherDisplay:10.37,2013-03-20 00:53:00,
2013-03-19 20:58:00,16.4,14.7,29.80,SE,125,0.0,0.0,93,0.00,-SN,FEW,0.00,0.0,WeatherDisplay:10.37,2013-03-20 00:58:00,
2013-03-19 21:03:00,16.4,14.7,29.79,SE,125,1.0,1.0,93,0.00,-SN,FEW,0.00,0.0,WeatherDisplay:10.37,2013-03-20 01:03:00,
2013-03-19 21:08:00,16.4,14.7,29.79,SE,125,1.2,1.2,93,0.00,-SN,FEW,0.00,0.0,WeatherDisplay:10.37,2013-03-20 01:08:00,
2013-03-19 21:13:00,16.4,14.7,29.79,SE,125,0.0,0.0,93,0.00,-SN,FEW,0.00,0.0,WeatherDisplay:10.37,2013-03-20 01:13:00,
2013-03-19 21:18:00,16.3,14.6,29.79,SE,125,0.0,0.0,93,0.00,-SN,FEW,0.00,0.0,WeatherDisplay:10.37,2013-03-20 01:18:00,
2013-03-19 21:23:00,16.3,14.6,29.79,ESE,120,2.3,2.3,93,0.00,-SN,FEW,0.00,0.0,WeatherDisplay:10.37,2013-03-20 01:23:00,
2013-03-19 21:28:00,16.3,14.6,29.79,ESE,120,3.5,3.5,93,0.00,-SN,FEW,0.00,0.0,WeatherDisplay:10.37,2013-03-20 01:28:00,
2013-03-19 21:33:00,16.3,14.4,29.79,ESE,121,2.3,2.3,92,0.00,-SN,FEW,0.00,0.0,WeatherDisplay:10.37,2013-03-20 01:33:00,
2013-03-19 21:38:00,16.3,14.6,29.79,ESE,121,1.2,0.0,93,0.00,-SN,FEW,0.00,0.0,WeatherDisplay:10.37,2013-03-20 01:38:00,
2013-03-19 21:43:00,16.3,14.6,29.78,ESE,121,0.0,0.0,93,0.00,-SN,FEW,0.00,0.0,WeatherDisplay:10.37,2013-03-20 01:43:00,
2013-03-19 21:48:00,16.3,14.6,29.78,ESE,121,0.0,0.0,93,0.00,-SN,FEW,0.00,0.0,WeatherDisplay:10.37,2013-03-20 01:48:00,
2013-03-19 21:53:00,16.3,14.6,29.78,ESE,121,0.0,0.0,93,0.00,-SN,FEW,0.00,0.0,WeatherDisplay:10.37,2013-03-20 01:53:00,
2013-03-19 21:58:00,16.2,14.5,29.78,ESE,121,0.0,0.0,93,0.00,-SN,FEW,0.00,0.0,WeatherDisplay:10.37,2013-03-20 01:58:00,
2013-03-19 22:03:00,16.3,14.6,29.78,ESE,121,0.0,0.0,93,0.00,-SN,FEW,0.00,0.0,WeatherDisplay:10.37,2013-03-20 02:03:00,
2013-03-19 22:08:00,16.3,14.6,29.78,ESE,121,0.0,0.0,93,0.00,-SN,FEW,0.00,0.0,WeatherDisplay:10.37,2013-03-20 02:08:00,
2013-03-19 22:13:00,16.3,14.6,29.78,ESE,121,0.0,0.0,93,0.00,-SN,FEW,0.00,0.0,WeatherDisplay:10.37,2013-03-20 02:13:00,
2013-03-19 22:18:00,16.4,14.7,29.78,ESE,121,0.0,0.0,93,0.00,-SN,FEW,0.00,0.0,WeatherDisplay:10.37,2013-03-20 02:18:00,
2013-03-19 22:23:00,16.4,14.7,29.78,ESE,121,0.0,0.0,93,0.00,-SN,FEW,0.00,0.0,WeatherDisplay:10.37,2013-03-20 02:23:00,
2013-03-19 22:28:00,16.4,14.7,29.78,ESE,121,0.0,0.0,93,0.00,-SN,FEW,0.00,0.0,WeatherDisplay:10.37,2013-03-20 02:28:00,
2013-03-19 22:33:00,16.4,14.7,29.78,ESE,121,0.0,0.0,93,0.00,-SN,FEW,0.00,0.0,WeatherDisplay:10.37,2013-03-20 02:33:00,
2013-03-19 22:38:00,16.3,14.4,29.78,ESE,121,0.0,0.0,92,0.00,-SN,FEW,0.00,0.0,WeatherDisplay:10.37,2013-03-20 02:38:00,
2013-03-19 22:43:00,16.3,14.4,29.77,ESE,121,0.0,0.0,92,0.00,-SN,FEW,0.00,0.0,WeatherDisplay:10.37,2013-03-20 02:43:00,
2013-03-19 22:48:00,16.3,14.6,29.78,ESE,121,0.0,0.0,93,0.00,-SN,FEW,0.00,0.0,WeatherDisplay:10.37,2013-03-20 02:48:00,
2013-03-19 22:53:00,16.3,14.6,29.77,ESE,121,0.0,0.0,93,0.00,-SN,FEW,0.00,0.0,WeatherDisplay:10.37,2013-03-20 02:53:00,
2013-03-19 22:58:00,16.3,14.6,29.77,ESE,121,0.0,0.0,93,0.00,-SN,FEW,0.00,0.0,WeatherDisplay:10.37,2013-03-20 02:58:00,
2013-03-19 23:04:00,16.3,14.6,29.77,ESE,121,0.0,0.0,93,0.00,-SN,FEW,0.00,0.0,WeatherDisplay:10.37,2013-03-20 03:04:00,
2013-03-19 23:09:00,16.4,14.7,29.77,ESE,121,0.0,0.0,93,0.00,-SN,FEW,0.00,0.0,WeatherDisplay:10.37,2013-03-20 03:09:00,
2013-03-19 23:14:00,16.4,14.7,29.77,ESE,121,0.0,0.0,93,0.00,-SN,FEW,0.00,0.0,WeatherDisplay:10.37,2013-03-20 03:14:00,
2013-03-19 23:19:00,16.4,14.7,29.77,ESE,121,0.0,0.0,93,0.00,-SN,FEW,0.00,0.0,WeatherDisplay:10.37,2013-03-20 03:19:00,
2013-03-19 23:24:00,16.4,14.7,29.77,ESE,121,0.0,0.0,93,0.00,-SN,FEW,0.00,0.0,WeatherDisplay:10.37,2013-03-20 03:24:00,
2013-03-19 23:29:00,16.4,14.7,29.77,ESE,121,0.0,0.0,93,0.00,-SN,FEW,0.00,0.0,WeatherDisplay:10.37,2013-03-20 03:29:00,
2013-03-19 23:34:00,16.4,14.7,29.76,ESE,121,0.0,0.0,93,0.00,-SN,FEW,0.00,0.0,WeatherDisplay:10.37,2013-03-20 03:34:00,
2013-03-19 23:39:00,16.4,14.5,29.77,ESE,121,0.0,0.0,92,0.00,-SN,FEW,0.00,0.0,WeatherDisplay:10.37,2013-03-20 03:39:00,
2013-03-19 23:44:00,16.3,14.4,29.76,ESE,121,0.0,0.0,92,0.00,-SN,FEW,0.00,0.0,WeatherDisplay:10.37,2013-03-20 03:44:00,
2013-03-19 23:49:00,16.2,14.3,29.76,ESE,121,0.0,0.0,92,0.00,-SN,FEW,0.00,0.0,WeatherDisplay:10.37,2013-03-20 03:49:00,
2013-03-19 23:54:00,16.2,14.3,29.76,ESE,121,0.0,0.0,92,0.00,-SN,FEW,0.00,0.0,WeatherDisplay:10.37,2013-03-20 03:54:00,
2013-03-19 23:59:00,16.2,14.5,29.76,ESE,121,0.0,0.0,93,0.00,-SN,FEW,0.00,0.0,WeatherDisplay:10.37,2013-03-20 03:59:00,